sensor_id;sensor_type;location;lat;lon;timestamp;temperature;humidity
53268;DHT22;39156;51.176;6.738;2022-07-29T00:02:13;20.30;42.90
53268;DHT22;39156;51.176;6.738;2022-07-29T00:04:39;20.30;42.90
53268;DHT22;39156;51.176;6.738;2022-07-29T00:07:05;20.30;42.80
53268;DHT22;39156;51.176;6.738;2022-07-29T00:09:31;20.30;42.90
53268;DHT22;39156;51.176;6.738;2022-07-29T00:12:00;20.30;42.90
53268;DHT22;39156;51.176;6.738;2022-07-29T00:14:26;20.30;42.90
53268;DHT22;39156;51.176;6.738;2022-07-29T00:16:53;20.30;42.80
53268;DHT22;39156;51.176;6.738;2022-07-29T00:19:19;20.30;42.80
53268;DHT22;39156;51.176;6.738;2022-07-29T00:21:45;20.20;42.90
53268;DHT22;39156;51.176;6.738;2022-07-29T00:24:10;20.20;42.90
53268;DHT22;39156;51.176;6.738;2022-07-29T00:26:36;20.20;43.10
53268;DHT22;39156;51.176;6.738;2022-07-29T00:29:03;20.20;43.20
53268;DHT22;39156;51.176;6.738;2022-07-29T00:31:29;20.20;43.20
53268;DHT22;39156;51.176;6.738;2022-07-29T00:33:55;20.10;43.20
53268;DHT22;39156;51.176;6.738;2022-07-29T00:36:21;20.20;43.40
53268;DHT22;39156;51.176;6.738;2022-07-29T00:38:48;20.10;43.30
53268;DHT22;39156;51.176;6.738;2022-07-29T00:41:15;20.10;43.40
53268;DHT22;39156;51.176;6.738;2022-07-29T00:43:41;20.10;43.30
53268;DHT22;39156;51.176;6.738;2022-07-29T00:46:07;20.10;42.70
53268;DHT22;39156;51.176;6.738;2022-07-29T00:48:33;20.10;43.20
53268;DHT22;39156;51.176;6.738;2022-07-29T00:51:00;20.00;43.20
53268;DHT22;39156;51.176;6.738;2022-07-29T00:53:27;20.00;43.20
53268;DHT22;39156;51.176;6.738;2022-07-29T00:55:57;20.00;43.20
53268;DHT22;39156;51.176;6.738;2022-07-29T00:58:24;20.10;43.30
53268;DHT22;39156;51.176;6.738;2022-07-29T01:00:50;20.10;43.30
53268;DHT22;39156;51.176;6.738;2022-07-29T01:03:16;20.10;42.70
53268;DHT22;39156;51.176;6.738;2022-07-29T01:05:42;20.00;43.20
53268;DHT22;39156;51.176;6.738;2022-07-29T01:08:09;20.00;43.40
53268;DHT22;39156;51.176;6.738;2022-07-29T01:10:37;20.00;43.40
53268;DHT22;39156;51.176;6.738;2022-07-29T01:13:04;20.00;43.50
53268;DHT22;39156;51.176;6.738;2022-07-29T01:15:30;20.00;43.50
53268;DHT22;39156;51.176;6.738;2022-07-29T01:18:15;20.00;43.40
53268;DHT22;39156;51.176;6.738;2022-07-29T01:24:11;19.90;43.40
53268;DHT22;39156;51.176;6.738;2022-07-29T01:27:01;19.90;42.80
53268;DHT22;39156;51.176;6.738;2022-07-29T01:29:45;19.90;43.60
53268;DHT22;39156;51.176;6.738;2022-07-29T01:32:19;19.80;43.60
53268;DHT22;39156;51.176;6.738;2022-07-29T01:34:50;19.80;43.80
53268;DHT22;39156;51.176;6.738;2022-07-29T01:37:29;19.80;44.00
53268;DHT22;39156;51.176;6.738;2022-07-29T01:40:01;19.80;44.40
53268;DHT22;39156;51.176;6.738;2022-07-29T01:42:34;19.80;44.40
53268;DHT22;39156;51.176;6.738;2022-07-29T01:45:14;19.80;44.40
53268;DHT22;39156;51.176;6.738;2022-07-29T01:48:13;19.70;44.30
53268;DHT22;39156;51.176;6.738;2022-07-29T01:50:56;19.70;44.30
53268;DHT22;39156;51.176;6.738;2022-07-29T01:53:34;19.70;44.10
53268;DHT22;39156;51.176;6.738;2022-07-29T01:56:02;19.70;44.10
53268;DHT22;39156;51.176;6.738;2022-07-29T01:58:29;19.70;44.00
53268;DHT22;39156;51.176;6.738;2022-07-29T02:00:58;19.70;44.20
53268;DHT22;39156;51.176;6.738;2022-07-29T02:03:25;19.70;44.60
53268;DHT22;39156;51.176;6.738;2022-07-29T02:05:53;19.70;45.20
53268;DHT22;39156;51.176;6.738;2022-07-29T02:08:19;19.70;45.40
53268;DHT22;39156;51.176;6.738;2022-07-29T02:10:47;19.70;45.50
53268;DHT22;39156;51.176;6.738;2022-07-29T02:13:16;19.60;45.80
53268;DHT22;39156;51.176;6.738;2022-07-29T02:15:43;19.60;45.80
53268;DHT22;39156;51.176;6.738;2022-07-29T02:18:16;19.60;46.10
53268;DHT22;39156;51.176;6.738;2022-07-29T02:20:53;19.60;46.10
53268;DHT22;39156;51.176;6.738;2022-07-29T02:23:22;19.60;46.00
53268;DHT22;39156;51.176;6.738;2022-07-29T02:25:52;19.60;45.80
53268;DHT22;39156;51.176;6.738;2022-07-29T02:28:20;19.60;45.50
53268;DHT22;39156;51.176;6.738;2022-07-29T02:30:50;19.60;45.20
53268;DHT22;39156;51.176;6.738;2022-07-29T02:33:17;19.50;45.10
53268;DHT22;39156;51.176;6.738;2022-07-29T02:35:45;19.50;45.00
53268;DHT22;39156;51.176;6.738;2022-07-29T02:38:14;19.50;45.00
53268;DHT22;39156;51.176;6.738;2022-07-29T02:41:02;19.40;45.70
53268;DHT22;39156;51.176;6.738;2022-07-29T02:43:30;19.30;45.00
53268;DHT22;39156;51.176;6.738;2022-07-29T02:45:58;19.20;45.10
53268;DHT22;39156;51.176;6.738;2022-07-29T02:48:33;19.10;45.10
53268;DHT22;39156;51.176;6.738;2022-07-29T02:51:08;19.10;45.40
53268;DHT22;39156;51.176;6.738;2022-07-29T02:53:38;19.00;45.40
53268;DHT22;39156;51.176;6.738;2022-07-29T02:56:09;19.00;45.50
53268;DHT22;39156;51.176;6.738;2022-07-29T02:58:52;18.90;45.70
53268;DHT22;39156;51.176;6.738;2022-07-29T03:01:24;18.80;45.50
53268;DHT22;39156;51.176;6.738;2022-07-29T03:03:54;18.80;45.80
53268;DHT22;39156;51.176;6.738;2022-07-29T03:06:22;18.80;45.80
53268;DHT22;39156;51.176;6.738;2022-07-29T03:08:49;18.80;45.90
53268;DHT22;39156;51.176;6.738;2022-07-29T03:11:16;18.70;45.80
53268;DHT22;39156;51.176;6.738;2022-07-29T03:13:43;18.70;45.80
53268;DHT22;39156;51.176;6.738;2022-07-29T03:16:10;18.70;46.10
53268;DHT22;39156;51.176;6.738;2022-07-29T03:18:37;18.70;46.90
53268;DHT22;39156;51.176;6.738;2022-07-29T03:21:03;18.70;47.30
53268;DHT22;39156;51.176;6.738;2022-07-29T03:23:30;18.70;47.90
53268;DHT22;39156;51.176;6.738;2022-07-29T03:25:55;18.70;47.80
53268;DHT22;39156;51.176;6.738;2022-07-29T03:28:22;18.70;49.00
53268;DHT22;39156;51.176;6.738;2022-07-29T03:30:48;18.60;49.00
53268;DHT22;39156;51.176;6.738;2022-07-29T03:33:14;18.60;49.10
53268;DHT22;39156;51.176;6.738;2022-07-29T03:35:40;18.60;49.80
53268;DHT22;39156;51.176;6.738;2022-07-29T03:38:06;18.50;50.20
53268;DHT22;39156;51.176;6.738;2022-07-29T03:40:45;18.40;50.80
53268;DHT22;39156;51.176;6.738;2022-07-29T03:43:15;18.20;50.10
53268;DHT22;39156;51.176;6.738;2022-07-29T03:45:45;18.10;51.40
53268;DHT22;39156;51.176;6.738;2022-07-29T03:48:15;17.90;52.90
53268;DHT22;39156;51.176;6.738;2022-07-29T03:50:42;17.70;53.20
53268;DHT22;39156;51.176;6.738;2022-07-29T03:53:08;17.50;54.40
53268;DHT22;39156;51.176;6.738;2022-07-29T03:55:40;17.40;54.60
53268;DHT22;39156;51.176;6.738;2022-07-29T03:58:08;17.20;55.40
53268;DHT22;39156;51.176;6.738;2022-07-29T04:00:34;17.00;55.50
53268;DHT22;39156;51.176;6.738;2022-07-29T04:03:01;16.80;56.10
53268;DHT22;39156;51.176;6.738;2022-07-29T04:05:29;16.70;56.60
53268;DHT22;39156;51.176;6.738;2022-07-29T04:07:54;16.60;57.20
53268;DHT22;39156;51.176;6.738;2022-07-29T04:10:20;16.50;57.50
53268;DHT22;39156;51.176;6.738;2022-07-29T04:12:46;16.40;57.80
53268;DHT22;39156;51.176;6.738;2022-07-29T04:15:11;16.30;57.90
53268;DHT22;39156;51.176;6.738;2022-07-29T04:17:37;16.20;58.20
53268;DHT22;39156;51.176;6.738;2022-07-29T04:20:04;16.20;58.50
53268;DHT22;39156;51.176;6.738;2022-07-29T04:22:30;16.10;58.60
53268;DHT22;39156;51.176;6.738;2022-07-29T04:24:56;16.10;58.80
53268;DHT22;39156;51.176;6.738;2022-07-29T04:27:21;16.10;58.40
53268;DHT22;39156;51.176;6.738;2022-07-29T04:29:47;16.00;58.80
53268;DHT22;39156;51.176;6.738;2022-07-29T04:32:13;16.00;59.20
53268;DHT22;39156;51.176;6.738;2022-07-29T04:34:38;16.00;59.20
53268;DHT22;39156;51.176;6.738;2022-07-29T04:37:04;16.00;59.70
53268;DHT22;39156;51.176;6.738;2022-07-29T04:39:30;16.00;59.30
53268;DHT22;39156;51.176;6.738;2022-07-29T04:41:55;16.10;59.50
53268;DHT22;39156;51.176;6.738;2022-07-29T04:44:21;16.00;59.60
53268;DHT22;39156;51.176;6.738;2022-07-29T04:46:47;16.10;60.10
53268;DHT22;39156;51.176;6.738;2022-07-29T04:49:13;16.10;59.60
53268;DHT22;39156;51.176;6.738;2022-07-29T04:51:39;16.10;59.60
53268;DHT22;39156;51.176;6.738;2022-07-29T04:54:04;16.00;59.60
53268;DHT22;39156;51.176;6.738;2022-07-29T04:56:31;16.00;60.20
53268;DHT22;39156;51.176;6.738;2022-07-29T04:58:57;16.10;60.00
53268;DHT22;39156;51.176;6.738;2022-07-29T05:01:22;16.10;60.00
53268;DHT22;39156;51.176;6.738;2022-07-29T05:03:48;16.10;59.40
53268;DHT22;39156;51.176;6.738;2022-07-29T05:06:14;16.20;59.30
53268;DHT22;39156;51.176;6.738;2022-07-29T05:08:39;16.20;58.90
53268;DHT22;39156;51.176;6.738;2022-07-29T05:11:05;16.30;59.30
53268;DHT22;39156;51.176;6.738;2022-07-29T05:13:31;16.30;59.30
53268;DHT22;39156;51.176;6.738;2022-07-29T05:15:57;16.40;59.10
53268;DHT22;39156;51.176;6.738;2022-07-29T05:18:24;16.40;59.00
53268;DHT22;39156;51.176;6.738;2022-07-29T05:20:50;16.50;59.10
53268;DHT22;39156;51.176;6.738;2022-07-29T05:23:16;16.50;57.80
53268;DHT22;39156;51.176;6.738;2022-07-29T05:25:42;16.60;59.40
53268;DHT22;39156;51.176;6.738;2022-07-29T05:28:08;16.60;59.50
53268;DHT22;39156;51.176;6.738;2022-07-29T05:30:33;16.70;58.80
53268;DHT22;39156;51.176;6.738;2022-07-29T05:32:59;16.70;59.40
53268;DHT22;39156;51.176;6.738;2022-07-29T05:35:24;16.80;59.40
53268;DHT22;39156;51.176;6.738;2022-07-29T05:37:50;16.80;59.10
53268;DHT22;39156;51.176;6.738;2022-07-29T05:40:16;16.90;59.60
53268;DHT22;39156;51.176;6.738;2022-07-29T05:42:41;16.90;59.40
53268;DHT22;39156;51.176;6.738;2022-07-29T05:45:07;16.90;59.20
53268;DHT22;39156;51.176;6.738;2022-07-29T05:47:34;16.90;59.20
53268;DHT22;39156;51.176;6.738;2022-07-29T05:49:59;16.90;59.10
53268;DHT22;39156;51.176;6.738;2022-07-29T05:52:25;17.00;58.80
53268;DHT22;39156;51.176;6.738;2022-07-29T05:54:51;17.00;59.60
53268;DHT22;39156;51.176;6.738;2022-07-29T05:57:22;17.00;59.90
53268;DHT22;39156;51.176;6.738;2022-07-29T05:59:49;17.10;59.70
53268;DHT22;39156;51.176;6.738;2022-07-29T06:02:16;17.10;59.30
53268;DHT22;39156;51.176;6.738;2022-07-29T06:04:42;17.20;59.30
53268;DHT22;39156;51.176;6.738;2022-07-29T06:07:08;17.30;59.00
53268;DHT22;39156;51.176;6.738;2022-07-29T06:09:34;17.40;59.90
53268;DHT22;39156;51.176;6.738;2022-07-29T06:12:00;17.50;59.60
53268;DHT22;39156;51.176;6.738;2022-07-29T06:14:26;17.60;58.60
53268;DHT22;39156;51.176;6.738;2022-07-29T06:16:53;17.70;59.10
53268;DHT22;39156;51.176;6.738;2022-07-29T06:19:19;17.80;58.30
53268;DHT22;39156;51.176;6.738;2022-07-29T06:21:46;18.00;59.40
53268;DHT22;39156;51.176;6.738;2022-07-29T06:24:12;18.10;59.80
53268;DHT22;39156;51.176;6.738;2022-07-29T06:26:40;18.10;59.50
53268;DHT22;39156;51.176;6.738;2022-07-29T06:29:06;18.20;59.60
53268;DHT22;39156;51.176;6.738;2022-07-29T06:31:32;18.30;58.90
53268;DHT22;39156;51.176;6.738;2022-07-29T06:33:57;18.30;59.00
53268;DHT22;39156;51.176;6.738;2022-07-29T06:36:23;18.30;59.20
53268;DHT22;39156;51.176;6.738;2022-07-29T06:38:49;18.30;59.30
53268;DHT22;39156;51.176;6.738;2022-07-29T06:41:14;18.30;58.90
53268;DHT22;39156;51.176;6.738;2022-07-29T06:43:42;18.30;58.80
53268;DHT22;39156;51.176;6.738;2022-07-29T06:46:10;18.40;58.90
53268;DHT22;39156;51.176;6.738;2022-07-29T06:48:39;18.30;59.00
53268;DHT22;39156;51.176;6.738;2022-07-29T06:51:06;18.40;58.60
53268;DHT22;39156;51.176;6.738;2022-07-29T06:53:32;18.40;58.30
53268;DHT22;39156;51.176;6.738;2022-07-29T06:55:59;18.40;58.00
53268;DHT22;39156;51.176;6.738;2022-07-29T06:58:27;18.40;59.00
53268;DHT22;39156;51.176;6.738;2022-07-29T07:00:53;18.40;59.30
53268;DHT22;39156;51.176;6.738;2022-07-29T07:03:19;18.40;59.40
53268;DHT22;39156;51.176;6.738;2022-07-29T07:05:45;18.40;59.30
53268;DHT22;39156;51.176;6.738;2022-07-29T07:08:12;18.40;59.30
53268;DHT22;39156;51.176;6.738;2022-07-29T07:10:38;18.50;59.50
53268;DHT22;39156;51.176;6.738;2022-07-29T07:13:05;18.50;58.70
53268;DHT22;39156;51.176;6.738;2022-07-29T07:15:31;18.50;59.20
53268;DHT22;39156;51.176;6.738;2022-07-29T07:17:57;18.50;59.50
53268;DHT22;39156;51.176;6.738;2022-07-29T07:20:24;18.60;59.80
53268;DHT22;39156;51.176;6.738;2022-07-29T07:22:50;18.60;59.60
53268;DHT22;39156;51.176;6.738;2022-07-29T07:25:15;18.60;59.80
53268;DHT22;39156;51.176;6.738;2022-07-29T07:27:45;18.60;59.80
53268;DHT22;39156;51.176;6.738;2022-07-29T07:30:11;18.60;59.90
53268;DHT22;39156;51.176;6.738;2022-07-29T07:32:38;18.50;59.70
53268;DHT22;39156;51.176;6.738;2022-07-29T07:35:06;18.50;59.70
53268;DHT22;39156;51.176;6.738;2022-07-29T07:37:33;18.40;59.80
53268;DHT22;39156;51.176;6.738;2022-07-29T07:40:00;18.40;60.20
53268;DHT22;39156;51.176;6.738;2022-07-29T07:42:26;18.30;60.20
53268;DHT22;39156;51.176;6.738;2022-07-29T07:44:52;18.30;60.50
53268;DHT22;39156;51.176;6.738;2022-07-29T07:47:18;18.20;61.10
53268;DHT22;39156;51.176;6.738;2022-07-29T07:49:48;18.20;61.20
53268;DHT22;39156;51.176;6.738;2022-07-29T07:52:17;18.10;61.60
53268;DHT22;39156;51.176;6.738;2022-07-29T07:54:44;18.10;61.20
53268;DHT22;39156;51.176;6.738;2022-07-29T07:57:10;18.00;61.10
53268;DHT22;39156;51.176;6.738;2022-07-29T07:59:37;18.00;61.90
53268;DHT22;39156;51.176;6.738;2022-07-29T08:02:03;17.90;61.60
53268;DHT22;39156;51.176;6.738;2022-07-29T08:04:29;18.00;62.00
53268;DHT22;39156;51.176;6.738;2022-07-29T08:06:56;18.00;62.50
53268;DHT22;39156;51.176;6.738;2022-07-29T08:09:22;17.90;62.60
53268;DHT22;39156;51.176;6.738;2022-07-29T08:11:50;17.90;62.50
53268;DHT22;39156;51.176;6.738;2022-07-29T08:14:16;17.90;62.50
53268;DHT22;39156;51.176;6.738;2022-07-29T08:16:41;17.90;62.30
53268;DHT22;39156;51.176;6.738;2022-07-29T08:19:08;17.90;63.40
53268;DHT22;39156;51.176;6.738;2022-07-29T08:21:34;17.90;64.00
53268;DHT22;39156;51.176;6.738;2022-07-29T08:24:00;18.00;64.00
53268;DHT22;39156;51.176;6.738;2022-07-29T08:26:44;18.00;64.10
53268;DHT22;39156;51.176;6.738;2022-07-29T08:29:10;18.10;63.40
53268;DHT22;39156;51.176;6.738;2022-07-29T08:31:37;18.20;62.50
53268;DHT22;39156;51.176;6.738;2022-07-29T08:34:04;18.30;62.60
53268;DHT22;39156;51.176;6.738;2022-07-29T08:36:31;18.30;61.50
53268;DHT22;39156;51.176;6.738;2022-07-29T08:38:57;18.30;61.10
53268;DHT22;39156;51.176;6.738;2022-07-29T08:41:23;18.40;61.00
53268;DHT22;39156;51.176;6.738;2022-07-29T08:43:49;18.40;61.00
53268;DHT22;39156;51.176;6.738;2022-07-29T08:46:16;18.40;60.90
53268;DHT22;39156;51.176;6.738;2022-07-29T08:48:43;18.30;60.70
53268;DHT22;39156;51.176;6.738;2022-07-29T08:51:13;18.30;60.90
53268;DHT22;39156;51.176;6.738;2022-07-29T08:53:42;18.30;61.70
53268;DHT22;39156;51.176;6.738;2022-07-29T08:56:12;18.40;61.30
53268;DHT22;39156;51.176;6.738;2022-07-29T08:58:39;18.40;61.70
53268;DHT22;39156;51.176;6.738;2022-07-29T09:01:06;18.50;61.90
53268;DHT22;39156;51.176;6.738;2022-07-29T09:03:34;18.50;61.40
53268;DHT22;39156;51.176;6.738;2022-07-29T09:06:02;18.60;61.20
53268;DHT22;39156;51.176;6.738;2022-07-29T09:08:30;18.70;60.20
53268;DHT22;39156;51.176;6.738;2022-07-29T09:10:57;18.70;59.10
53268;DHT22;39156;51.176;6.738;2022-07-29T09:13:23;18.80;60.00
53268;DHT22;39156;51.176;6.738;2022-07-29T09:15:50;18.80;60.70
53268;DHT22;39156;51.176;6.738;2022-07-29T09:18:36;18.90;60.70
53268;DHT22;39156;51.176;6.738;2022-07-29T09:21:09;19.00;60.60
53268;DHT22;39156;51.176;6.738;2022-07-29T09:24:21;19.10;59.90
53268;DHT22;39156;51.176;6.738;2022-07-29T09:26:46;19.20;58.70
53268;DHT22;39156;51.176;6.738;2022-07-29T09:29:23;19.20;58.70
53268;DHT22;39156;51.176;6.738;2022-07-29T09:31:52;19.30;58.30
53268;DHT22;39156;51.176;6.738;2022-07-29T09:34:28;19.30;58.20
53268;DHT22;39156;51.176;6.738;2022-07-29T09:36:56;19.30;57.40
53268;DHT22;39156;51.176;6.738;2022-07-29T09:39:35;19.30;58.10
53268;DHT22;39156;51.176;6.738;2022-07-29T09:42:04;19.40;58.40
53268;DHT22;39156;51.176;6.738;2022-07-29T09:44:41;19.30;57.90
53268;DHT22;39156;51.176;6.738;2022-07-29T09:47:09;19.30;57.60
53268;DHT22;39156;51.176;6.738;2022-07-29T09:49:36;19.30;58.10
53268;DHT22;39156;51.176;6.738;2022-07-29T09:52:16;19.30;58.00
53268;DHT22;39156;51.176;6.738;2022-07-29T09:54:42;19.30;57.70
53268;DHT22;39156;51.176;6.738;2022-07-29T09:57:09;19.40;57.90
53268;DHT22;39156;51.176;6.738;2022-07-29T09:59:59;19.40;57.60
53268;DHT22;39156;51.176;6.738;2022-07-29T10:02:33;19.50;57.40
53268;DHT22;39156;51.176;6.738;2022-07-29T10:05:02;19.60;57.80
53268;DHT22;39156;51.176;6.738;2022-07-29T10:07:50;19.60;57.10
53268;DHT22;39156;51.176;6.738;2022-07-29T10:10:37;19.80;57.00
53268;DHT22;39156;51.176;6.738;2022-07-29T10:13:07;19.90;56.40
53268;DHT22;39156;51.176;6.738;2022-07-29T10:15:42;20.00;56.40
53268;DHT22;39156;51.176;6.738;2022-07-29T10:18:11;20.10;55.50
53268;DHT22;39156;51.176;6.738;2022-07-29T10:20:39;20.20;56.10
53268;DHT22;39156;51.176;6.738;2022-07-29T10:23:05;20.30;55.30
53268;DHT22;39156;51.176;6.738;2022-07-29T10:25:31;20.30;54.90
53268;DHT22;39156;51.176;6.738;2022-07-29T10:27:57;20.40;54.40
53268;DHT22;39156;51.176;6.738;2022-07-29T10:30:24;20.50;54.00
53268;DHT22;39156;51.176;6.738;2022-07-29T10:39:02;20.70;52.90
53268;DHT22;39156;51.176;6.738;2022-07-29T10:41:55;20.90;52.40
53268;DHT22;39156;51.176;6.738;2022-07-29T10:44:25;20.90;52.00
53268;DHT22;39156;51.176;6.738;2022-07-29T10:46:53;21.00;52.30
53268;DHT22;39156;51.176;6.738;2022-07-29T10:49:22;21.10;51.80
53268;DHT22;39156;51.176;6.738;2022-07-29T10:51:59;21.10;50.70
53268;DHT22;39156;51.176;6.738;2022-07-29T10:54:42;21.20;51.20
53268;DHT22;39156;51.176;6.738;2022-07-29T10:57:17;21.20;52.50
53268;DHT22;39156;51.176;6.738;2022-07-29T11:05:09;21.40;49.90
53268;DHT22;39156;51.176;6.738;2022-07-29T11:07:36;21.50;50.00
53268;DHT22;39156;51.176;6.738;2022-07-29T11:15:26;21.70;49.00
53268;DHT22;39156;51.176;6.738;2022-07-29T11:20:44;21.90;49.10
53268;DHT22;39156;51.176;6.738;2022-07-29T11:23:22;22.00;49.20
53268;DHT22;39156;51.176;6.738;2022-07-29T11:31:31;22.50;48.90
53268;DHT22;39156;51.176;6.738;2022-07-29T11:34:22;22.60;48.30
53268;DHT22;39156;51.176;6.738;2022-07-29T11:37:20;22.80;47.60
53268;DHT22;39156;51.176;6.738;2022-07-29T11:45:05;23.30;46.10
53268;DHT22;39156;51.176;6.738;2022-07-29T11:47:47;23.40;46.10
53268;DHT22;39156;51.176;6.738;2022-07-29T11:50:17;23.40;46.30
53268;DHT22;39156;51.176;6.738;2022-07-29T11:52:51;23.50;46.20
53268;DHT22;39156;51.176;6.738;2022-07-29T11:55:19;23.60;47.70
53268;DHT22;39156;51.176;6.738;2022-07-29T11:57:52;23.70;47.70
53268;DHT22;39156;51.176;6.738;2022-07-29T12:00:28;23.70;47.70
53268;DHT22;39156;51.176;6.738;2022-07-29T12:02:54;23.80;47.60
53268;DHT22;39156;51.176;6.738;2022-07-29T12:05:20;23.90;47.60
53268;DHT22;39156;51.176;6.738;2022-07-29T12:07:47;23.90;47.30
53268;DHT22;39156;51.176;6.738;2022-07-29T12:10:14;24.00;47.40
53268;DHT22;39156;51.176;6.738;2022-07-29T12:12:40;24.00;47.80
53268;DHT22;39156;51.176;6.738;2022-07-29T12:15:16;24.10;46.80
53268;DHT22;39156;51.176;6.738;2022-07-29T12:17:45;24.20;46.80
53268;DHT22;39156;51.176;6.738;2022-07-29T12:20:11;24.30;47.20
53268;DHT22;39156;51.176;6.738;2022-07-29T12:22:41;24.30;46.90
53268;DHT22;39156;51.176;6.738;2022-07-29T12:25:13;24.40;47.60
53268;DHT22;39156;51.176;6.738;2022-07-29T12:27:41;24.40;46.50
53268;DHT22;39156;51.176;6.738;2022-07-29T12:30:10;24.50;46.60
53268;DHT22;39156;51.176;6.738;2022-07-29T12:32:43;24.50;46.10
53268;DHT22;39156;51.176;6.738;2022-07-29T12:35:11;24.50;46.00
53268;DHT22;39156;51.176;6.738;2022-07-29T12:37:43;24.60;45.50
53268;DHT22;39156;51.176;6.738;2022-07-29T12:40:14;24.60;45.60
53268;DHT22;39156;51.176;6.738;2022-07-29T12:45:39;24.70;45.40
53268;DHT22;39156;51.176;6.738;2022-07-29T12:48:08;24.70;44.60
53268;DHT22;39156;51.176;6.738;2022-07-29T12:50:51;24.70;44.10
53268;DHT22;39156;51.176;6.738;2022-07-29T12:53:25;24.70;44.20
53268;DHT22;39156;51.176;6.738;2022-07-29T12:55:53;24.70;44.60
53268;DHT22;39156;51.176;6.738;2022-07-29T12:58:40;24.70;44.30
53268;DHT22;39156;51.176;6.738;2022-07-29T13:01:13;24.60;44.90
53268;DHT22;39156;51.176;6.738;2022-07-29T13:03:56;24.70;45.50
53268;DHT22;39156;51.176;6.738;2022-07-29T13:09:14;24.70;45.30
53268;DHT22;39156;51.176;6.738;2022-07-29T13:11:45;24.80;45.00
53268;DHT22;39156;51.176;6.738;2022-07-29T13:14:35;24.80;45.40
53268;DHT22;39156;51.176;6.738;2022-07-29T13:17:14;24.80;45.20
53268;DHT22;39156;51.176;6.738;2022-07-29T13:19:53;24.90;45.20
53268;DHT22;39156;51.176;6.738;2022-07-29T13:22:30;24.90;44.60
53268;DHT22;39156;51.176;6.738;2022-07-29T13:24:58;24.90;44.80
53268;DHT22;39156;51.176;6.738;2022-07-29T13:27:28;24.90;45.10
53268;DHT22;39156;51.176;6.738;2022-07-29T13:29:56;24.90;44.20
53268;DHT22;39156;51.176;6.738;2022-07-29T13:32:24;24.80;44.40
53268;DHT22;39156;51.176;6.738;2022-07-29T13:34:51;24.80;44.10
53268;DHT22;39156;51.176;6.738;2022-07-29T13:37:18;24.80;44.80
53268;DHT22;39156;51.176;6.738;2022-07-29T13:39:44;24.80;44.10
53268;DHT22;39156;51.176;6.738;2022-07-29T13:42:10;24.90;44.20
53268;DHT22;39156;51.176;6.738;2022-07-29T13:44:38;24.80;44.10
53268;DHT22;39156;51.176;6.738;2022-07-29T13:47:06;24.90;43.60
53268;DHT22;39156;51.176;6.738;2022-07-29T13:49:33;24.80;43.20
53268;DHT22;39156;51.176;6.738;2022-07-29T13:51:59;24.80;43.50
53268;DHT22;39156;51.176;6.738;2022-07-29T13:54:24;24.80;44.10
53268;DHT22;39156;51.176;6.738;2022-07-29T13:56:51;24.80;44.00
53268;DHT22;39156;51.176;6.738;2022-07-29T13:59:16;24.70;44.10
53268;DHT22;39156;51.176;6.738;2022-07-29T14:01:43;24.70;43.80
53268;DHT22;39156;51.176;6.738;2022-07-29T14:04:09;24.70;44.10
53268;DHT22;39156;51.176;6.738;2022-07-29T14:06:36;24.60;43.80
53268;DHT22;39156;51.176;6.738;2022-07-29T14:09:03;24.70;44.10
53268;DHT22;39156;51.176;6.738;2022-07-29T14:11:34;24.60;43.70
53268;DHT22;39156;51.176;6.738;2022-07-29T14:14:00;24.60;43.50
53268;DHT22;39156;51.176;6.738;2022-07-29T14:16:25;24.60;43.50
53268;DHT22;39156;51.176;6.738;2022-07-29T14:18:51;24.50;43.10
53268;DHT22;39156;51.176;6.738;2022-07-29T14:21:17;24.50;43.30
53268;DHT22;39156;51.176;6.738;2022-07-29T14:23:42;24.40;43.50
53268;DHT22;39156;51.176;6.738;2022-07-29T14:26:08;24.40;43.40
53268;DHT22;39156;51.176;6.738;2022-07-29T14:28:34;24.40;44.00
53268;DHT22;39156;51.176;6.738;2022-07-29T14:30:59;24.30;44.20
53268;DHT22;39156;51.176;6.738;2022-07-29T14:33:25;24.30;43.80
53268;DHT22;39156;51.176;6.738;2022-07-29T14:35:51;24.30;43.40
53268;DHT22;39156;51.176;6.738;2022-07-29T14:38:16;24.30;43.80
53268;DHT22;39156;51.176;6.738;2022-07-29T14:40:42;24.30;43.90
53268;DHT22;39156;51.176;6.738;2022-07-29T14:43:08;24.30;43.40
53268;DHT22;39156;51.176;6.738;2022-07-29T14:45:33;24.30;43.30
53268;DHT22;39156;51.176;6.738;2022-07-29T14:47:59;24.40;43.20
53268;DHT22;39156;51.176;6.738;2022-07-29T14:50:25;24.40;42.30
53268;DHT22;39156;51.176;6.738;2022-07-29T14:52:52;24.40;42.00
53268;DHT22;39156;51.176;6.738;2022-07-29T14:55:17;24.40;41.90
53268;DHT22;39156;51.176;6.738;2022-07-29T14:57:43;24.40;42.60
53268;DHT22;39156;51.176;6.738;2022-07-29T15:00:09;24.40;42.00
53268;DHT22;39156;51.176;6.738;2022-07-29T15:02:36;24.40;41.50
53268;DHT22;39156;51.176;6.738;2022-07-29T15:05:02;24.40;41.90
53268;DHT22;39156;51.176;6.738;2022-07-29T15:07:28;24.40;41.70
53268;DHT22;39156;51.176;6.738;2022-07-29T15:09:54;24.40;41.10
53268;DHT22;39156;51.176;6.738;2022-07-29T15:12:19;24.50;41.50
53268;DHT22;39156;51.176;6.738;2022-07-29T15:14:45;24.50;41.20
53268;DHT22;39156;51.176;6.738;2022-07-29T15:17:11;24.50;41.00
53268;DHT22;39156;51.176;6.738;2022-07-29T15:19:37;24.50;41.00
53268;DHT22;39156;51.176;6.738;2022-07-29T15:22:02;24.50;40.60
53268;DHT22;39156;51.176;6.738;2022-07-29T15:24:30;24.50;40.10
53268;DHT22;39156;51.176;6.738;2022-07-29T15:26:56;24.50;39.80
53268;DHT22;39156;51.176;6.738;2022-07-29T15:29:21;24.50;39.30
53268;DHT22;39156;51.176;6.738;2022-07-29T15:31:47;24.40;39.30
53268;DHT22;39156;51.176;6.738;2022-07-29T15:34:13;24.30;39.50
53268;DHT22;39156;51.176;6.738;2022-07-29T15:36:39;24.30;39.70
53268;DHT22;39156;51.176;6.738;2022-07-29T15:39:08;24.20;40.00
53268;DHT22;39156;51.176;6.738;2022-07-29T15:41:36;24.10;40.10
53268;DHT22;39156;51.176;6.738;2022-07-29T15:44:01;24.10;40.60
53268;DHT22;39156;51.176;6.738;2022-07-29T15:46:27;24.10;40.10
53268;DHT22;39156;51.176;6.738;2022-07-29T15:49:11;24.00;40.40
53268;DHT22;39156;51.176;6.738;2022-07-29T15:51:37;24.00;41.10
53268;DHT22;39156;51.176;6.738;2022-07-29T15:54:03;24.00;41.00
53268;DHT22;39156;51.176;6.738;2022-07-29T15:56:29;24.00;41.00
53268;DHT22;39156;51.176;6.738;2022-07-29T15:58:55;24.10;41.50
53268;DHT22;39156;51.176;6.738;2022-07-29T16:01:22;24.10;41.10
53268;DHT22;39156;51.176;6.738;2022-07-29T16:03:48;24.10;41.30
53268;DHT22;39156;51.176;6.738;2022-07-29T16:06:14;24.10;41.10
53268;DHT22;39156;51.176;6.738;2022-07-29T16:08:39;24.10;41.40
53268;DHT22;39156;51.176;6.738;2022-07-29T16:11:05;24.10;41.50
53268;DHT22;39156;51.176;6.738;2022-07-29T16:13:31;24.10;41.30
53268;DHT22;39156;51.176;6.738;2022-07-29T16:15:56;24.10;41.20
53268;DHT22;39156;51.176;6.738;2022-07-29T16:18:22;24.10;41.30
53268;DHT22;39156;51.176;6.738;2022-07-29T16:20:48;24.10;41.50